createdAt,value
2018-02-03T00:00:19.977Z,15.11
2018-02-03T00:01:19.920Z,15.19
2018-02-03T00:02:19.860Z,15.23
2018-02-03T00:03:19.799Z,15.15
2018-02-03T00:04:19.739Z,15.12
2018-02-03T00:05:19.680Z,15.17
2018-02-03T00:06:19.621Z,15.12
2018-02-03T00:07:19.562Z,15.14
2018-02-03T00:08:19.502Z,15.19
2018-02-03T00:09:19.440Z,15.14
2018-02-03T00:10:19.384Z,15.14
2018-02-03T00:11:19.321Z,15.12
2018-02-03T00:12:19.262Z,15.12
2018-02-03T00:13:19.204Z,15.17
2018-02-03T00:14:19.143Z,15.14
2018-02-03T00:15:19.084Z,15.19
2018-02-03T00:16:19.023Z,15.12
2018-02-03T00:17:18.964Z,15.15
2018-02-03T00:18:18.906Z,15.12
2018-02-03T00:19:18.845Z,15.19
2018-02-03T00:20:18.785Z,15.15
2018-02-03T00:21:18.725Z,15.10
2018-02-03T00:22:18.665Z,15.14
2018-02-03T00:23:18.606Z,15.12
2018-02-03T00:24:18.547Z,15.11
2018-02-03T00:25:18.486Z,15.19
2018-02-03T00:26:18.428Z,15.12
2018-02-03T00:27:18.367Z,15.10
2018-02-03T00:28:18.306Z,15.10
2018-02-03T00:29:18.247Z,15.15
2018-02-03T00:30:18.188Z,15.11
2018-02-03T00:31:18.130Z,15.05
2018-02-03T00:32:18.069Z,15.11
2018-02-03T00:33:18.009Z,15.15
2018-02-03T00:34:17.949Z,15.14
2018-02-03T00:35:17.891Z,15.20
2018-02-03T00:36:17.829Z,15.15
2018-02-03T00:37:17.771Z,15.20
2018-02-03T00:38:17.710Z,15.11
2018-02-03T00:39:17.652Z,15.11
2018-02-03T00:40:17.589Z,15.07
2018-02-03T00:41:17.530Z,15.03
2018-02-03T00:42:17.472Z,15.11
2018-02-03T00:43:17.412Z,15.17
2018-02-03T00:44:17.352Z,15.08
2018-02-03T00:45:17.292Z,14.99
2018-02-03T00:46:17.232Z,15.12
2018-02-03T00:47:17.173Z,14.99
2018-02-03T00:48:17.113Z,15.05
2018-02-03T00:49:17.055Z,15.15
2018-02-03T00:50:16.996Z,15.07
2018-02-03T00:51:16.933Z,15.08
2018-02-03T00:52:16.875Z,15.11
2018-02-03T00:53:16.814Z,15.08
2018-02-03T00:54:16.755Z,15.07
2018-02-03T00:55:16.697Z,15.04
2018-02-03T00:56:16.635Z,15.11
2018-02-03T00:57:16.575Z,15.10
2018-02-03T00:58:16.516Z,15.12
2018-02-03T00:59:16.456Z,15.17
2018-02-03T01:00:16.396Z,15.08
2018-02-03T01:01:16.337Z,15.04
2018-02-03T01:02:16.277Z,15.12
2018-02-03T01:03:16.218Z,15.11
2018-02-03T01:04:16.157Z,15.05
2018-02-03T01:05:16.099Z,15.07
2018-02-03T01:06:16.038Z,15.08
2018-02-03T01:07:15.979Z,15.08
2018-02-03T01:08:15.918Z,15.08
2018-02-03T01:09:15.858Z,15.10
2018-02-03T01:10:15.799Z,14.97
2018-02-03T01:11:15.738Z,15.08
2018-02-03T01:12:15.678Z,15.04
2018-02-03T01:13:15.619Z,14.99
2018-02-03T01:14:15.560Z,15.01
2018-02-03T01:15:15.499Z,15.05
2018-02-03T01:16:15.439Z,15.05
2018-02-03T01:17:15.379Z,15.01
2018-02-03T01:18:15.321Z,15.05
2018-02-03T01:19:15.262Z,15.05
2018-02-03T01:20:15.200Z,15.04
2018-02-03T01:21:15.141Z,15.08
2018-02-03T01:22:15.082Z,14.97
2018-02-03T01:23:15.023Z,14.96
2018-02-03T01:24:14.983Z,15.08
2018-02-03T01:25:14.904Z,15.07
2018-02-03T01:26:14.844Z,15.01
2018-02-03T01:27:14.783Z,15.10
2018-02-03T01:28:14.723Z,15.07
2018-02-03T01:29:14.663Z,15.03
2018-02-03T01:30:14.605Z,15.03
2018-02-03T01:31:14.544Z,15.03
2018-02-03T01:32:14.485Z,14.99
2018-02-03T01:33:14.424Z,15.10
2018-02-03T01:34:14.365Z,15.08
2018-02-03T01:35:14.304Z,15.10
2018-02-03T01:36:14.243Z,15.08
2018-02-03T01:37:14.184Z,15.07
2018-02-03T01:38:14.126Z,15.10
2018-02-03T01:39:14.065Z,15.04
2018-02-03T01:40:14.006Z,14.96
2018-02-03T01:41:13.945Z,14.96
2018-02-03T01:42:13.888Z,14.97
2018-02-03T01:43:13.826Z,14.99
2018-02-03T01:44:13.765Z,14.97
2018-02-03T01:45:13.705Z,15.04
2018-02-03T01:46:13.647Z,15.03
2018-02-03T01:47:13.586Z,14.96
2018-02-03T01:48:13.525Z,15.01
2018-02-03T01:49:13.521Z,15.03
2018-02-03T01:50:13.406Z,14.93
2018-02-03T01:51:13.347Z,14.96
2018-02-03T01:52:13.287Z,14.92
2018-02-03T01:53:13.228Z,14.96
2018-02-03T01:54:13.169Z,14.95
2018-02-03T01:55:13.107Z,14.92
2018-02-03T01:56:13.047Z,14.92
2018-02-03T01:57:12.989Z,14.93
2018-02-03T01:58:12.928Z,14.92
2018-02-03T01:59:12.868Z,14.87
2018-02-03T02:00:12.809Z,14.90
2018-02-03T02:01:12.749Z,14.89
2018-02-03T02:02:12.689Z,14.90
2018-02-03T02:03:12.630Z,14.92
2018-02-03T02:04:12.567Z,14.97
2018-02-03T02:05:12.509Z,14.97
2018-02-03T02:06:12.450Z,14.93
2018-02-03T02:07:12.392Z,14.93
2018-02-03T02:08:12.329Z,14.89
2018-02-03T02:09:12.270Z,14.86
2018-02-03T02:10:12.211Z,14.93
2018-02-03T02:11:12.150Z,14.95
2018-02-03T02:12:12.089Z,14.93
2018-02-03T02:13:12.029Z,14.97
2018-02-03T02:14:11.970Z,14.89
2018-02-03T02:15:11.911Z,14.87
2018-02-03T02:16:11.850Z,14.87
2018-02-03T02:17:11.791Z,14.79
2018-02-03T02:18:11.731Z,14.87
2018-02-03T02:19:11.672Z,14.93
2018-02-03T02:20:11.611Z,14.89
2018-02-03T02:21:11.550Z,14.87
2018-02-03T02:22:11.491Z,14.92
2018-02-03T02:23:11.432Z,14.90
2018-02-03T02:24:11.371Z,14.78
2018-02-03T02:25:11.313Z,14.77
2018-02-03T02:26:11.251Z,14.85
2018-02-03T02:27:11.193Z,14.86
2018-02-03T02:28:11.131Z,14.83
2018-02-03T02:29:11.073Z,14.79
2018-02-03T02:30:11.013Z,14.71
2018-02-03T02:31:10.954Z,14.83
2018-02-03T02:32:10.892Z,14.85
2018-02-03T02:33:10.832Z,14.87
2018-02-03T02:34:10.771Z,14.73
2018-02-03T02:35:10.715Z,14.77
2018-02-03T02:36:10.652Z,14.77
2018-02-03T02:37:10.595Z,14.77
2018-02-03T02:38:10.533Z,14.87
2018-02-03T02:39:10.473Z,14.79
2018-02-03T02:40:10.412Z,14.85
2018-02-03T02:41:10.352Z,14.79
2018-02-03T02:42:10.295Z,14.86
2018-02-03T02:43:10.233Z,14.85
2018-02-03T02:44:10.173Z,14.82
2018-02-03T02:45:10.114Z,14.78
2018-02-03T02:46:10.055Z,14.78
2018-02-03T02:47:09.994Z,14.71
2018-02-03T02:48:09.933Z,14.79
2018-02-03T02:49:09.876Z,14.78
2018-02-03T02:50:09.814Z,14.83
2018-02-03T02:51:09.758Z,14.78
2018-02-03T02:52:09.694Z,14.77
2018-02-03T02:53:09.634Z,14.85
2018-02-03T02:54:09.574Z,14.82
2018-02-03T02:55:09.513Z,14.83
2018-02-03T02:56:09.453Z,14.79
2018-02-03T02:57:16.708Z,14.74
2018-02-03T02:58:09.334Z,14.70
2018-02-03T02:59:09.276Z,14.78
2018-02-03T03:00:09.213Z,14.82
2018-02-03T03:01:09.154Z,14.78
2018-02-03T03:02:09.094Z,14.79
2018-02-03T03:03:09.037Z,14.83
2018-02-03T03:04:08.975Z,14.77
2018-02-03T03:05:08.914Z,14.83
2018-02-03T03:06:08.855Z,14.86
2018-02-03T03:07:08.794Z,14.79
2018-02-03T03:08:08.735Z,14.83
2018-02-03T03:09:08.674Z,14.79
2018-02-03T03:10:08.614Z,14.85
2018-02-03T03:11:08.555Z,14.79
2018-02-03T03:12:08.494Z,14.79
2018-02-03T03:13:08.435Z,14.71
2018-02-03T03:14:08.376Z,14.70
2018-02-03T03:15:08.315Z,14.71
2018-02-03T03:16:08.254Z,14.71
2018-02-03T03:17:08.195Z,14.69
2018-02-03T03:18:08.135Z,14.77
2018-02-03T03:19:08.076Z,14.71
2018-02-03T03:20:08.015Z,14.74
2018-02-03T03:21:07.954Z,14.71
2018-02-03T03:22:07.895Z,14.70
2018-02-03T03:23:07.835Z,14.78
2018-02-03T03:24:07.775Z,14.74
2018-02-03T03:25:07.715Z,14.69
2018-02-03T03:26:07.655Z,14.83
2018-02-03T03:27:07.597Z,14.67
2018-02-03T03:28:07.534Z,14.71
2018-02-03T03:29:07.475Z,14.73
2018-02-03T03:30:07.416Z,14.78
2018-02-03T03:31:07.355Z,14.71
2018-02-03T03:32:07.298Z,14.67
2018-02-03T03:33:07.235Z,14.73
2018-02-03T03:34:07.175Z,14.71
2018-02-03T03:35:07.115Z,14.73
2018-02-03T03:36:07.054Z,14.77
2018-02-03T03:37:06.996Z,14.77
2018-02-03T03:38:06.935Z,14.78
2018-02-03T03:39:06.876Z,14.71
2018-02-03T03:40:06.815Z,14.71
2018-02-03T03:41:06.755Z,14.71
2018-02-03T03:42:06.695Z,14.78
2018-02-03T03:43:06.637Z,14.83
2018-02-03T03:44:06.576Z,14.83
2018-02-03T03:45:06.515Z,14.69
2018-02-03T03:46:06.457Z,14.71
2018-02-03T03:47:06.394Z,14.61
2018-02-03T03:48:06.334Z,14.73
2018-02-03T03:49:06.276Z,14.73
2018-02-03T03:50:06.215Z,14.58
2018-02-03T03:51:06.159Z,14.66
2018-02-03T03:52:06.096Z,14.64
2018-02-03T03:53:06.036Z,14.64
2018-02-03T03:54:05.975Z,14.70
2018-02-03T03:55:05.916Z,14.70
2018-02-03T03:56:05.855Z,14.70
2018-02-03T03:57:05.794Z,14.67
2018-02-03T03:58:05.735Z,14.77
2018-02-03T03:59:05.679Z,14.77
2018-02-03T04:00:05.615Z,14.71
2018-02-03T04:01:05.554Z,14.74
2018-02-03T04:02:05.496Z,14.73
2018-02-03T04:03:05.434Z,14.59
2018-02-03T04:04:05.374Z,14.67
2018-02-03T04:05:05.315Z,14.67
2018-02-03T04:06:05.254Z,14.70
2018-02-03T04:07:05.201Z,14.64
2018-02-03T04:08:05.134Z,14.67
2018-02-03T04:09:05.076Z,14.70
2018-02-03T04:10:05.014Z,14.64
2018-02-03T04:11:04.956Z,14.59
2018-02-03T04:12:04.895Z,14.59
2018-02-03T04:13:04.833Z,14.55
2018-02-03T04:14:04.775Z,14.59
2018-02-03T04:15:04.714Z,14.59
2018-02-03T04:16:04.655Z,14.69
2018-02-03T04:17:04.594Z,14.61
2018-02-03T04:18:04.532Z,14.58
2018-02-03T04:19:04.474Z,14.59
2018-02-03T04:20:04.413Z,14.61
2018-02-03T04:21:04.353Z,14.59
2018-02-03T04:22:04.294Z,14.64
2018-02-03T04:23:04.233Z,14.63
2018-02-03T04:24:04.172Z,14.64
2018-02-03T04:25:04.113Z,14.61
2018-02-03T04:26:04.055Z,14.59
2018-02-03T04:27:03.993Z,14.63
2018-02-03T04:28:03.934Z,14.59
2018-02-03T04:29:03.873Z,14.66
2018-02-03T04:30:03.814Z,14.56
2018-02-03T04:31:03.755Z,14.66
2018-02-03T04:32:03.693Z,14.64
2018-02-03T04:33:03.634Z,14.63
2018-02-03T04:34:03.574Z,14.53
2018-02-03T04:35:03.516Z,14.56
2018-02-03T04:36:03.453Z,14.69
2018-02-03T04:37:03.394Z,14.61
2018-02-03T04:38:03.335Z,14.55
2018-02-03T04:39:03.273Z,14.55
2018-02-03T04:40:03.213Z,14.55
2018-02-03T04:41:03.152Z,14.52
2018-02-03T04:42:03.092Z,14.58
2018-02-03T04:43:03.033Z,14.53
2018-02-03T04:44:02.972Z,14.59
2018-02-03T04:45:02.914Z,14.56
2018-02-03T04:46:02.854Z,14.56
2018-02-03T04:47:02.794Z,14.59
2018-02-03T04:48:02.732Z,14.51
2018-02-03T04:49:02.672Z,14.55
2018-02-03T04:50:02.612Z,14.51
2018-02-03T04:51:02.552Z,14.58
2018-02-03T04:52:02.490Z,14.56
2018-02-03T04:53:02.431Z,14.56
2018-02-03T04:54:02.371Z,14.55
2018-02-03T04:55:02.312Z,14.55
2018-02-03T04:56:02.250Z,14.51
2018-02-03T04:57:02.190Z,14.58
2018-02-03T04:58:02.131Z,14.61
2018-02-03T04:59:02.071Z,14.58
2018-02-03T05:00:02.010Z,14.58
2018-02-03T05:01:01.950Z,14.55
2018-02-03T05:02:01.890Z,14.61
2018-02-03T05:03:01.830Z,14.56
2018-02-03T05:04:01.769Z,14.55
2018-02-03T05:05:01.710Z,14.53
2018-02-03T05:06:01.649Z,14.46
2018-02-03T05:07:01.592Z,14.52
2018-02-03T05:08:01.528Z,14.53
2018-02-03T05:09:01.468Z,14.53
2018-02-03T05:10:01.408Z,14.49
2018-02-03T05:11:01.350Z,14.56
2018-02-03T05:12:01.287Z,14.58
2018-02-03T05:13:01.229Z,14.53
2018-02-03T05:14:01.168Z,14.53
2018-02-03T05:15:01.109Z,14.55
2018-02-03T05:16:01.048Z,14.46
2018-02-03T05:17:00.989Z,14.49
2018-02-03T05:18:00.928Z,14.44
2018-02-03T05:19:00.867Z,14.45
2018-02-03T05:20:00.806Z,14.51
2018-02-03T05:21:00.745Z,14.45
2018-02-03T05:22:00.687Z,14.48
2018-02-03T05:23:00.626Z,14.53
2018-02-03T05:24:00.568Z,14.36
2018-02-03T05:25:00.506Z,14.44
2018-02-03T05:26:00.447Z,14.45
2018-02-03T05:27:00.386Z,14.46
2018-02-03T05:28:00.325Z,14.44
2018-02-03T05:29:00.266Z,14.38
2018-02-03T05:30:00.204Z,14.40
2018-02-03T05:31:00.146Z,14.38
2018-02-03T05:32:00.083Z,14.49
2018-02-03T05:33:00.030Z,14.37
2018-02-03T05:33:59.969Z,14.44
2018-02-03T05:34:59.904Z,14.44
2018-02-03T05:35:59.842Z,14.45
2018-02-03T05:36:59.783Z,14.38
2018-02-03T05:37:59.723Z,14.36
2018-02-03T05:38:59.664Z,14.34
2018-02-03T05:39:59.602Z,14.44
2018-02-03T05:40:59.541Z,14.41
2018-02-03T05:41:59.483Z,14.33
2018-02-03T19:20:59.878Z,14.04
2018-02-03T19:21:59.792Z,14.03
2018-02-03T19:23:52.570Z,14.03
2018-02-03T19:24:52.484Z,14.12
2018-02-03T19:26:45.244Z,14.05
2018-02-03T19:27:45.179Z,14.05
2018-02-03T19:29:37.968Z,13.98
2018-02-03T19:30:37.882Z,14.04
2018-02-03T19:32:30.648Z,14.05
2018-02-03T19:33:30.580Z,14.08
2018-02-03T19:35:23.363Z,14.03
2018-02-03T19:36:23.278Z,14.01
2018-02-03T19:38:16.048Z,14.00
2018-02-03T19:39:15.985Z,14.03
2018-02-03T19:41:08.766Z,14.05
2018-02-03T19:42:08.679Z,14.01
2018-02-03T19:44:01.459Z,13.97
2018-02-03T19:45:01.374Z,14.00
2018-02-03T19:46:54.160Z,13.93
2018-02-03T19:47:54.073Z,13.96
2018-02-03T19:49:46.836Z,14.00
2018-02-03T19:50:46.776Z,14.11
2018-02-03T19:52:39.560Z,14.01
2018-02-03T19:53:39.472Z,13.97
2018-02-03T19:55:32.237Z,13.97
2018-02-03T19:56:32.166Z,13.91
2018-02-03T19:58:24.947Z,14.03
2018-02-03T19:59:24.861Z,14.04
2018-02-03T20:01:17.647Z,14.01
2018-02-03T20:02:17.562Z,14.04
2018-02-03T20:04:10.348Z,13.98
2018-02-03T20:05:10.260Z,13.94
2018-02-03T20:07:03.028Z,13.91
2018-02-03T20:08:02.960Z,13.98
2018-02-03T20:09:55.742Z,14.03
2018-02-03T20:10:55.683Z,13.98
2018-02-03T20:12:48.424Z,13.97
2018-02-03T20:13:48.354Z,13.94
2018-02-03T20:15:41.138Z,14.01
2018-02-03T20:16:41.060Z,13.88
2018-02-03T20:18:33.823Z,13.91
2018-02-03T20:19:33.747Z,13.86
2018-02-03T20:21:26.533Z,13.97
2018-02-03T20:22:26.448Z,13.88
2018-02-03T20:24:19.217Z,13.90
2018-02-03T20:25:19.146Z,13.85
2018-02-03T20:27:11.932Z,13.93
2018-02-03T20:28:11.847Z,13.88
2018-02-03T20:30:04.611Z,13.83
2018-02-03T20:31:04.546Z,13.86
2018-02-03T20:32:57.363Z,13.90
2018-02-03T20:33:57.272Z,13.88
2018-02-03T20:35:50.037Z,13.88
2018-02-03T20:36:49.970Z,13.90
2018-02-03T20:38:43.357Z,13.88
2018-02-03T20:39:43.074Z,13.90
2018-02-03T20:41:35.652Z,13.94
2018-02-03T20:42:35.566Z,13.98
2018-02-03T20:44:28.386Z,13.98
2018-02-03T20:45:28.267Z,14.01
2018-02-03T20:47:21.048Z,13.96
2018-02-03T20:48:20.960Z,13.94
2018-02-03T20:50:13.723Z,14.00
2018-02-03T20:51:13.659Z,13.98
2018-02-03T20:53:06.447Z,13.88
2018-02-03T20:54:06.356Z,13.88
2018-02-03T20:55:59.119Z,13.86
2018-02-03T20:56:59.057Z,13.91
2018-02-03T20:58:51.843Z,13.90
2018-02-03T20:59:51.757Z,13.96
2018-02-03T21:01:45.128Z,13.88
2018-02-03T21:02:44.842Z,13.88
2018-02-03T21:04:37.423Z,13.83
2018-02-03T21:05:37.338Z,13.88
2018-02-03T21:07:30.121Z,13.90
2018-02-03T21:08:30.042Z,13.94
2018-02-03T21:10:22.819Z,13.93
2018-02-03T21:11:22.731Z,13.79
2018-02-03T21:13:15.515Z,13.79
2018-02-03T21:14:15.429Z,13.82
2018-02-03T21:16:08.212Z,13.85
2018-02-03T21:17:08.124Z,13.85
2018-02-03T21:19:00.908Z,13.90
2018-02-03T21:20:00.823Z,13.88
2018-02-03T21:21:53.584Z,13.93
2018-02-03T21:22:53.521Z,13.82
2018-02-03T21:24:46.306Z,13.91
2018-02-03T21:25:46.222Z,13.88
2018-02-03T21:27:38.982Z,13.82
2018-02-03T21:28:38.922Z,13.86
2018-02-03T21:30:31.704Z,13.86
2018-02-03T21:31:31.618Z,13.80
2018-02-03T21:33:24.383Z,13.80
2018-02-03T21:34:24.313Z,13.80
2018-02-03T21:36:17.098Z,13.88
2018-02-03T21:37:17.014Z,13.80
2018-02-03T21:39:09.780Z,13.79
2018-02-03T21:40:09.713Z,13.82
2018-02-03T21:42:02.502Z,13.90
2018-02-03T21:43:02.417Z,13.83
2018-02-03T21:44:55.178Z,13.88
2018-02-03T21:45:55.116Z,13.85
2018-02-03T21:47:47.897Z,13.91
2018-02-03T21:48:47.811Z,13.88
2018-02-03T21:50:40.595Z,13.86
2018-02-03T21:51:40.506Z,13.80
2018-02-03T21:53:33.289Z,13.82
2018-02-03T21:54:33.205Z,13.78
2018-02-03T21:56:25.977Z,13.82
2018-02-03T21:57:25.913Z,13.80
2018-02-03T21:59:18.696Z,13.78
2018-02-03T22:00:18.610Z,13.82
2018-02-03T22:02:11.371Z,13.80
2018-02-03T22:03:11.306Z,13.80
2018-02-03T22:05:04.091Z,13.82
2018-02-03T22:06:04.005Z,13.85
2018-02-03T22:07:56.789Z,13.78
2018-02-03T22:08:56.704Z,13.80
2018-02-03T22:10:49.509Z,13.85
2018-02-03T22:11:49.420Z,13.78
2018-02-03T22:13:42.206Z,13.83
2018-02-03T22:14:42.115Z,13.82
2018-02-03T22:16:34.876Z,13.78
2018-02-03T22:17:34.812Z,13.82
2018-02-03T22:19:27.593Z,13.82
2018-02-03T22:20:27.508Z,13.80
2018-02-03T22:22:20.268Z,13.85
2018-02-03T22:23:20.205Z,13.80
2018-02-03T22:25:12.987Z,13.78
2018-02-03T22:26:12.902Z,13.79
2018-02-03T22:28:05.686Z,13.83
2018-02-03T22:29:05.599Z,13.72
2018-02-03T22:30:58.381Z,13.80
2018-02-03T22:31:58.296Z,13.72
2018-02-03T22:33:51.058Z,13.83
2018-02-03T22:34:50.994Z,13.85
2018-02-03T22:36:43.788Z,13.86
2018-02-03T22:37:43.701Z,13.86
2018-02-03T22:39:36.462Z,13.82
2018-02-03T22:40:36.400Z,13.78
2018-02-03T22:42:29.182Z,13.73
2018-02-03T22:43:29.095Z,13.78
2018-02-03T22:45:21.879Z,13.75
2018-02-03T22:46:21.794Z,13.72
2018-02-03T22:48:14.578Z,13.80
2018-02-03T22:49:14.491Z,13.73
2018-02-03T22:51:07.251Z,13.79
2018-02-03T22:52:07.186Z,13.80
2018-02-03T22:53:59.968Z,13.72
2018-02-03T22:54:59.883Z,13.75
2018-02-03T22:56:52.648Z,13.76
2018-02-03T22:57:52.582Z,13.76
2018-02-03T22:59:45.367Z,13.79
2018-02-03T23:00:45.281Z,13.76
2018-02-03T23:02:38.064Z,13.80
2018-02-03T23:03:37.979Z,13.78
2018-02-03T23:05:30.759Z,13.75
2018-02-03T23:06:30.674Z,13.76
2018-02-03T23:08:23.438Z,13.79
2018-02-03T23:09:23.372Z,13.79
2018-02-03T23:11:16.153Z,13.76
2018-02-03T23:12:16.068Z,13.75
2018-02-03T23:14:08.830Z,13.76
2018-02-03T23:15:08.764Z,13.78
2018-02-03T23:17:01.547Z,13.72
2018-02-03T23:18:01.460Z,13.79
2018-02-03T23:19:54.221Z,13.76
2018-02-03T23:20:54.157Z,13.71
2018-02-03T23:22:46.942Z,13.75
2018-02-03T23:23:46.854Z,13.75
2018-02-03T23:25:39.615Z,13.72
2018-02-03T23:26:39.550Z,13.68
2018-02-03T23:28:32.334Z,13.76
2018-02-03T23:29:32.249Z,13.82
2018-02-03T23:31:25.028Z,13.73
2018-02-03T23:32:24.971Z,13.79
2018-02-03T23:34:17.769Z,13.75
2018-02-03T23:35:17.658Z,13.72
2018-02-03T23:37:10.441Z,13.72
2018-02-03T23:38:10.357Z,13.73
2018-02-03T23:40:03.137Z,13.75
2018-02-03T23:41:03.052Z,13.79
2018-02-03T23:42:55.832Z,13.72
2018-02-03T23:43:55.746Z,13.79
2018-02-03T23:45:48.529Z,13.73
2018-02-03T23:46:48.443Z,13.75
2018-02-03T23:48:41.204Z,13.75
2018-02-03T23:49:41.142Z,13.78
2018-02-03T23:51:33.926Z,13.68
2018-02-03T23:52:33.838Z,13.64
2018-02-03T23:54:26.621Z,13.73
2018-02-03T23:55:26.536Z,13.65
2018-02-03T23:57:19.319Z,13.80
2018-02-03T23:58:19.232Z,13.67
